Time;durP1;ratioP1;P1;durP2;ratioP2;P2;SDS_P1;SDS_P2;PMS_P1;PMS_P2;Temp;Humidity;BMP_temperature;BMP_pressure;BME280_temperature;BME280_humidity;BME280_pressure;Samples;Min_cycle;Max_cycle;Signal;HPM_P1;HPM_P2
2023/06/24 00:02:50;;;;;;;3.00;2.80;;;21.10;36.90;;;;;;10440030;28;20353;-67
2023/06/24 00:07:56;;;;;;;3.70;3.20;;;21.00;37.00;;;;;;10431384;28;20239;-68
2023/06/24 00:13:01;;;;;;;3.30;3.10;;;21.00;37.40;;;;;;10435239;28;20233;-68
2023/06/24 00:18:06;;;;;;;4.03;3.63;;;21.00;37.30;;;;;;10436183;28;20243;-68
2023/06/24 00:23:14;;;;;;;3.57;3.27;;;21.00;37.40;;;;;;10435814;28;20284;-68
2023/06/24 00:28:17;;;;;;;4.00;3.70;;;20.90;37.30;;;;;;10439258;28;20789;-67
2023/06/24 00:33:21;;;;;;;3.33;3.13;;;20.90;37.30;;;;;;10435416;28;20953;-68
2023/06/24 00:38:26;;;;;;;3.73;3.43;;;20.80;37.20;;;;;;10438491;28;20256;-68
2023/06/24 00:43:30;;;;;;;3.80;3.50;;;20.70;37.50;;;;;;10431409;28;20312;-68
2023/06/24 00:48:33;;;;;;;3.97;3.57;;;20.60;37.00;;;;;;10425855;28;20248;-67
2023/06/24 00:53:38;;;;;;;3.83;3.53;;;20.70;37.20;;;;;;10435528;28;20218;-67
2023/06/24 00:58:42;;;;;;;4.03;3.63;;;20.70;37.70;;;;;;10435837;28;20598;-68
2023/06/24 01:03:45;;;;;;;4.03;3.73;;;20.60;37.50;;;;;;10432502;28;20232;-68
2023/06/24 01:08:56;;;;;;;4.00;3.70;;;20.60;37.60;;;;;;10436781;28;20229;-68
2023/06/24 01:13:59;;;;;;;4.00;3.70;;;20.60;37.90;;;;;;10438977;28;20253;-68
2023/06/24 01:19:14;;;;;;;3.63;3.33;;;20.70;37.60;;;;;;10440074;28;20698;-68
2023/06/24 01:24:46;;;;;;;4.07;3.70;;;20.70;37.90;;;;;;10422919;28;20233;-68
2023/06/24 01:30:12;;;;;;;4.17;3.77;;;20.70;37.80;;;;;;10427456;28;20225;-68
2023/06/24 01:35:21;;;;;;;3.80;3.50;;;20.80;38.20;;;;;;10419627;28;20301;-68
2023/06/24 01:40:27;;;;;;;3.40;3.20;;;20.80;37.70;;;;;;10430947;28;20316;-68
2023/06/24 01:45:37;;;;;;;4.40;3.43;;;20.80;37.70;;;;;;10430624;28;20351;-68
2023/06/24 01:50:48;;;;;;;3.90;3.60;;;20.80;37.70;;;;;;10438153;28;20232;-68
2023/06/24 01:55:53;;;;;;;4.20;3.90;;;20.80;37.80;;;;;;10439094;28;20225;-68
2023/06/24 02:00:57;;;;;;;3.83;3.53;;;20.80;37.30;;;;;;10425886;28;20235;-68
2023/06/24 02:06:03;;;;;;;3.53;3.23;;;20.80;37.40;;;;;;10443755;28;20256;-68
2023/06/24 02:11:08;;;;;;;3.80;3.50;;;20.80;37.60;;;;;;10423556;28;20227;-68
2023/06/24 02:16:14;;;;;;;4.07;3.77;;;20.80;37.40;;;;;;10423855;28;20230;-68
2023/06/24 02:21:19;;;;;;;4.87;4.27;;;20.80;37.30;;;;;;10436182;28;20241;-68
2023/06/24 02:26:23;;;;;;;4.13;3.83;;;20.80;37.50;;;;;;10434293;28;20256;-68
2023/06/24 02:31:27;;;;;;;4.07;3.77;;;20.70;37.40;;;;;;10432201;28;20223;-68
2023/06/24 02:36:31;;;;;;;4.07;3.70;;;20.50;37.60;;;;;;10438613;28;20240;-68
2023/06/24 02:41:36;;;;;;;3.97;3.67;;;20.50;38.10;;;;;;10449197;28;20224;-68
2023/06/24 02:46:40;;;;;;;4.10;3.80;;;20.40;37.90;;;;;;10427509;28;20229;-68
2023/06/24 02:51:45;;;;;;;4.30;3.90;;;20.30;38.20;;;;;;10429860;28;20634;-68
2023/06/24 02:56:49;;;;;;;4.33;4.03;;;20.20;38.40;;;;;;10431191;28;20343;-68
2023/06/24 03:01:53;;;;;;;4.50;4.20;;;20.10;38.30;;;;;;10433504;28;20228;-68
2023/06/24 03:06:59;;;;;;;4.20;3.90;;;20.10;38.40;;;;;;10431277;28;20255;-68
2023/06/24 03:12:02;;;;;;;4.53;4.20;;;20.10;38.70;;;;;;10426980;28;20966;-69
2023/06/24 03:17:05;;;;;;;4.60;4.30;;;20.10;38.50;;;;;;10438794;28;20260;-67
2023/06/24 03:22:10;;;;;;;4.67;4.27;;;20.00;38.60;;;;;;10433082;28;20241;-68
2023/06/24 03:27:13;;;;;;;4.33;4.03;;;20.00;39.20;;;;;;10437391;28;20616;-68
2023/06/24 03:32:16;;;;;;;5.00;4.60;;;20.00;38.90;;;;;;10437322;28;20232;-68
2023/06/24 03:37:21;;;;;;;6.00;5.50;;;20.00;39.10;;;;;;10424242;28;20233;-68
2023/06/24 03:42:24;;;;;;;5.43;4.93;;;20.10;39.60;;;;;;10429676;28;20224;-68
2023/06/24 03:47:27;;;;;;;5.17;4.77;;;20.00;39.20;;;;;;10437291;28;20232;-68
2023/06/24 03:52:31;;;;;;;4.30;4.00;;;20.00;39.30;;;;;;10435047;28;20263;-68
2023/06/24 03:57:34;;;;;;;5.13;4.73;;;20.00;40.00;;;;;;10437443;28;20232;-67
2023/06/24 04:02:37;;;;;;;5.07;4.67;;;20.00;39.70;;;;;;10432445;28;20241;-68
2023/06/24 04:07:46;;;;;;;5.50;5.00;;;20.00;39.70;;;;;;10432439;28;20714;-68
2023/06/24 04:12:50;;;;;;;5.30;4.90;;;20.00;40.10;;;;;;10440325;28;20784;-68
2023/06/24 04:17:53;;;;;;;5.07;4.67;;;20.00;39.70;;;;;;10430412;28;20344;-68
2023/06/24 04:22:59;;;;;;;5.57;5.17;;;20.10;39.80;;;;;;10432891;28;20346;-68
2023/06/24 04:28:02;;;;;;;5.63;5.10;;;20.10;40.60;;;;;;10437586;28;20231;-68
2023/06/24 04:33:05;;;;;;;4.97;4.57;;;20.10;40.10;;;;;;10427061;28;20228;-68
2023/06/24 04:38:10;;;;;;;5.33;4.83;;;20.10;40.10;;;;;;10443174;28;20229;-68
2023/06/24 04:43:13;;;;;;;5.03;4.53;;;20.20;40.40;;;;;;10428210;28;20230;-68
2023/06/24 04:48:16;;;;;;;5.53;5.13;;;20.20;40.20;;;;;;10435978;28;20230;-67
2023/06/24 04:53:21;;;;;;;4.80;4.40;;;20.20;40.20;;;;;;10435623;28;20238;-67
2023/06/24 04:58:24;;;;;;;4.90;4.50;;;20.20;40.50;;;;;;10428518;28;20249;-68
2023/06/24 05:03:27;;;;;;;5.47;4.63;;;20.20;40.40;;;;;;10430627;28;20228;-68
2023/06/24 05:08:31;;;;;;;4.97;4.43;;;20.20;40.50;;;;;;10431270;28;20788;-68
2023/06/24 05:13:35;;;;;;;5.70;5.20;;;20.30;41.00;;;;;;10433387;28;20228;-67
2023/06/24 05:18:38;;;;;;;5.30;4.80;;;20.30;40.80;;;;;;10435159;28;20229;-67
2023/06/24 05:23:42;;;;;;;5.37;4.83;;;20.30;40.80;;;;;;10428436;28;20231;-68
2023/06/24 05:28:45;;;;;;;4.77;4.37;;;20.40;40.50;;;;;;10431367;28;20221;-68
2023/06/24 05:33:48;;;;;;;5.50;5.10;;;20.40;40.40;;;;;;10435297;28;20308;-68
2023/06/24 05:38:53;;;;;;;4.93;4.53;;;20.50;40.50;;;;;;10438089;28;20228;-68
2023/06/24 05:44:02;;;;;;;4.60;4.20;;;20.60;40.50;;;;;;10427802;28;20609;-68
2023/06/24 05:49:06;;;;;;;5.27;4.87;;;20.70;40.30;;;;;;10426774;28;20225;-68
2023/06/24 05:54:10;;;;;;;4.97;4.57;;;20.80;40.10;;;;;;10429880;28;20232;-67
2023/06/24 05:59:13;;;;;;;4.70;4.30;;;20.90;40.70;;;;;;10430499;28;20259;-68
2023/06/24 06:04:16;;;;;;;4.50;4.13;;;20.90;39.80;;;;;;10435114;28;20235;-68
2023/06/24 06:09:21;;;;;;;4.87;4.47;;;21.00;39.70;;;;;;10431730;28;20278;-67
2023/06/24 06:14:24;;;;;;;5.17;4.77;;;21.10;39.50;;;;;;10433375;28;20591;-68
2023/06/24 06:19:27;;;;;;;4.80;4.40;;;21.10;39.50;;;;;;10426751;28;20251;-68
2023/06/24 06:24:32;;;;;;;4.67;4.37;;;21.20;39.60;;;;;;10443446;28;20231;-68
2023/06/24 06:29:35;;;;;;;5.30;4.90;;;21.20;39.60;;;;;;10430330;28;20229;-68
2023/06/24 06:34:38;;;;;;;5.37;4.97;;;21.30;39.30;;;;;;10423807;28;20225;-68
2023/06/24 06:39:43;;;;;;;5.03;4.60;;;21.30;39.00;;;;;;10436066;28;20967;-67
2023/06/24 06:44:46;;;;;;;5.20;4.80;;;21.30;39.50;;;;;;10429570;28;20236;-67
2023/06/24 06:49:49;;;;;;;4.90;4.53;;;21.40;39.20;;;;;;10428010;28;20235;-67
2023/06/24 06:54:53;;;;;;;5.20;4.80;;;21.50;39.10;;;;;;10430638;28;20249;-68
2023/06/24 06:59:57;;;;;;;5.87;4.60;;;21.60;39.00;;;;;;10433282;28;20236;-67
2023/06/24 07:05:01;;;;;;;5.17;4.77;;;21.70;39.10;;;;;;10427743;28;20860;-67
2023/06/24 07:10:06;;;;;;;5.87;5.03;;;21.80;39.20;;;;;;10434575;28;20229;-68
2023/06/24 07:15:10;;;;;;;5.30;4.23;;;21.90;38.50;;;;;;10419650;28;20682;-67
2023/06/24 07:20:15;;;;;;;4.07;3.77;;;22.10;39.10;;;;;;10422130;28;20240;-68
2023/06/24 07:25:20;;;;;;;4.90;4.50;;;22.20;38.40;;;;;;10431996;28;20229;-68
2023/06/24 07:30:23;;;;;;;3.90;3.60;;;22.30;38.10;;;;;;10431493;28;20229;-67
2023/06/24 07:35:26;;;;;;;3.87;3.57;;;22.40;38.10;;;;;;10437291;28;20236;-67
2023/06/24 07:40:31;;;;;;;4.80;4.40;;;22.50;38.30;;;;;;10432242;28;20221;-68
2023/06/24 07:45:34;;;;;;;4.33;4.03;;;22.60;37.30;;;;;;10428628;28;20226;-67
2023/06/24 07:50:39;;;;;;;4.93;4.50;;;22.70;37.60;;;;;;10437235;28;20247;-67
2023/06/24 07:55:43;;;;;;;4.00;3.70;;;22.80;37.10;;;;;;10427249;28;20324;-68
2023/06/24 08:00:46;;;;;;;4.40;4.10;;;22.80;36.70;;;;;;10433368;28;20221;-68
2023/06/24 08:05:50;;;;;;;4.27;3.97;;;22.90;36.70;;;;;;10435624;28;20229;-67
2023/06/24 08:10:55;;;;;;;4.67;4.27;;;23.10;36.80;;;;;;10428266;28;20238;-67
2023/06/24 08:15:58;;;;;;;4.50;4.20;;;23.10;36.30;;;;;;10436123;28;20233;-67
2023/06/24 08:21:01;;;;;;;4.00;3.70;;;23.20;36.90;;;;;;10430547;28;20743;-66
2023/06/24 08:26:07;;;;;;;4.83;4.43;;;23.30;36.70;;;;;;10429976;28;20229;-67
2023/06/24 08:31:22;;;;;;;3.90;3.60;;;23.50;36.00;;;;;;10433698;28;20252;-68
2023/06/24 08:36:28;;;;;;;3.70;3.40;;;23.70;36.80;;;;;;10431113;28;20235;-68
2023/06/24 08:41:32;;;;;;;4.67;4.10;;;23.90;36.10;;;;;;10430108;28;20224;-72
2023/06/24 08:46:36;;;;;;;4.33;4.03;;;24.10;35.70;;;;;;10431871;28;20220;-67
2023/06/24 08:51:42;;;;;;;4.17;3.90;;;24.20;35.40;;;;;;10430101;28;20233;-68
2023/06/24 08:56:47;;;;;;;5.13;4.63;;;24.30;34.90;;;;;;10434168;28;20234;-68
2023/06/24 09:01:51;;;;;;;4.33;4.03;;;24.30;34.70;;;;;;10430635;28;20692;-68
2023/06/24 09:06:54;;;;;;;4.17;3.87;;;24.30;34.50;;;;;;10430243;28;20236;-68
2023/06/24 09:12:02;;;;;;;4.37;4.07;;;24.40;34.90;;;;;;10429069;28;20239;-67
2023/06/24 09:17:05;;;;;;;4.63;4.23;;;24.50;34.40;;;;;;10433981;28;20666;-67
2023/06/24 09:22:16;;;;;;;4.47;4.07;;;24.60;34.00;;;;;;10438881;28;20224;-68
2023/06/24 09:27:21;;;;;;;4.60;4.20;;;24.70;33.90;;;;;;10431627;28;20315;-68
2023/06/24 09:32:30;;;;;;;4.33;4.03;;;24.80;34.10;;;;;;10426686;28;20218;-68
2023/06/24 09:37:34;;;;;;;4.37;4.07;;;24.90;32.90;;;;;;10441503;28;20648;-68
2023/06/24 09:42:47;;;;;;;4.23;3.90;;;25.00;33.00;;;;;;10426734;28;20608;-68
2023/06/24 09:47:51;;;;;;;4.10;3.80;;;25.10;32.90;;;;;;10422931;28;20316;-68
2023/06/24 09:52:57;;;;;;;4.00;3.70;;;25.20;32.70;;;;;;10431204;28;20249;-68
2023/06/24 09:58:02;;;;;;;4.33;4.03;;;25.30;32.40;;;;;;10434061;28;20727;-68
2023/06/24 10:03:05;;;;;;;4.37;3.97;;;25.40;32.20;;;;;;10424240;28;20230;-68
2023/06/24 10:08:10;;;;;;;5.60;3.60;;;25.40;33.10;;;;;;10427157;28;21117;-68
2023/06/24 10:13:14;;;;;;;3.57;3.30;;;25.50;32.30;;;;;;10425617;28;20251;-67
2023/06/24 10:18:34;;;;;;;3.70;3.50;;;25.80;31.70;;;;;;10427807;28;20268;-68
2023/06/24 10:23:42;;;;;;;3.60;3.30;;;26.10;31.20;;;;;;10431560;28;20645;-67
2023/06/24 10:29:13;;;;;;;4.10;3.80;;;26.40;30.00;;;;;;10431197;28;20249;-68
2023/06/24 10:34:23;;;;;;;3.50;3.30;;;26.70;29.60;;;;;;10428808;28;20315;-68
2023/06/24 10:39:40;;;;;;;5.07;3.30;;;26.80;29.10;;;;;;10422209;28;20235;-67
2023/06/24 10:44:48;;;;;;;3.30;3.00;;;27.00;29.70;;;;;;10435388;28;20239;-67
2023/06/24 10:49:51;;;;;;;3.90;3.60;;;27.20;28.70;;;;;;10432125;28;20229;-68
2023/06/24 10:54:57;;;;;;;3.90;3.57;;;27.40;29.90;;;;;;10420805;28;20454;-68
2023/06/24 11:00:04;;;;;;;3.40;3.17;;;27.40;29.20;;;;;;10434932;28;20712;-68
2023/06/24 11:05:08;;;;;;;3.77;3.33;;;27.40;27.80;;;;;;10438241;28;20689;-67
2023/06/24 11:10:12;;;;;;;3.57;3.37;;;27.40;28.60;;;;;;10434285;28;20232;-68
2023/06/24 11:15:19;;;;;;;3.70;3.40;;;27.30;28.20;;;;;;10435513;28;20316;-68
2023/06/24 11:20:22;;;;;;;3.33;3.13;;;27.30;27.80;;;;;;10445883;28;20600;-67
2023/06/24 11:25:25;;;;;;;3.53;3.33;;;27.40;28.50;;;;;;10427821;28;20233;-67
2023/06/24 11:30:34;;;;;;;3.40;3.20;;;27.50;28.20;;;;;;10440494;28;20316;-68
2023/06/24 11:35:38;;;;;;;3.17;2.97;;;27.60;27.60;;;;;;10441273;28;20222;-67
2023/06/24 11:40:41;;;;;;;3.33;3.03;;;27.70;27.70;;;;;;10428343;28;20263;-67
2023/06/24 11:45:49;;;;;;;3.23;3.03;;;27.70;27.40;;;;;;10424674;28;20719;-67
2023/06/24 11:50:55;;;;;;;3.27;3.07;;;27.70;26.50;;;;;;10425552;28;20283;-69
2023/06/24 11:55:58;;;;;;;3.40;3.10;;;27.70;26.60;;;;;;10425157;28;20240;-68
2023/06/24 12:01:03;;;;;;;3.50;3.30;;;27.80;27.30;;;;;;10434218;28;20716;-68
2023/06/24 12:06:06;;;;;;;3.57;3.37;;;27.90;27.00;;;;;;10432411;28;20307;-67
2023/06/24 12:11:09;;;;;;;3.30;3.10;;;28.00;27.20;;;;;;10430706;28;20225;-68
2023/06/24 12:16:14;;;;;;;3.43;3.13;;;28.00;26.70;;;;;;10428167;28;20260;-67
2023/06/24 12:21:17;;;;;;;3.60;3.03;;;28.00;25.40;;;;;;10426703;28;20221;-67
2023/06/24 12:26:20;;;;;;;3.07;2.87;;;28.00;26.20;;;;;;10432823;28;20236;-69
2023/06/24 12:31:24;;;;;;;3.17;2.97;;;27.90;26.40;;;;;;10429876;28;20229;-70
2023/06/24 12:36:28;;;;;;;2.77;2.67;;;27.90;25.70;;;;;;10430372;28;20278;-68
2023/06/24 12:41:31;;;;;;;3.13;2.93;;;28.00;26.30;;;;;;10427561;28;20235;-68
2023/06/24 12:46:36;;;;;;;3.13;2.93;;;28.00;25.70;;;;;;10426725;28;20229;-68
2023/06/24 12:51:39;;;;;;;3.20;3.00;;;28.00;25.00;;;;;;10434633;28;21182;-68
2023/06/24 12:56:42;;;;;;;3.70;3.40;;;27.90;25.50;;;;;;10432047;28;20244;-68
2023/06/24 13:01:47;;;;;;;3.80;3.50;;;27.90;25.40;;;;;;10423026;28;20230;-68
2023/06/24 13:06:50;;;;;;;3.30;3.10;;;28.00;25.40;;;;;;10433581;28;20302;-67
2023/06/24 13:11:53;;;;;;;4.03;3.30;;;28.10;25.50;;;;;;10429038;28;20275;-67
2023/06/24 13:16:58;;;;;;;3.63;3.33;;;28.20;25.40;;;;;;10429421;28;20323;-68
2023/06/24 13:22:01;;;;;;;3.53;3.23;;;28.30;24.70;;;;;;10437495;28;20308;-68
2023/06/24 13:27:04;;;;;;;2.93;2.77;;;28.40;24.90;;;;;;10430153;28;20708;-68
2023/06/24 13:32:10;;;;;;;3.37;3.13;;;28.50;24.50;;;;;;10426576;28;20227;-67
2023/06/24 13:37:13;;;;;;;3.30;3.00;;;28.50;23.70;;;;;;10428234;28;20263;-67
2023/06/24 13:42:18;;;;;;;3.70;3.40;;;28.60;24.00;;;;;;10436236;28;20575;-70
2023/06/24 13:47:23;;;;;;;3.63;3.17;;;28.60;23.00;;;;;;10425960;28;20244;-67
2023/06/24 13:52:27;;;;;;;3.07;2.87;;;28.60;23.60;;;;;;10427425;28;21040;-68
2023/06/24 13:57:30;;;;;;;2.80;2.60;;;28.60;23.30;;;;;;10431385;28;20274;-68
2023/06/24 14:02:34;;;;;;;3.17;2.87;;;28.60;23.20;;;;;;10430268;28;20584;-67
2023/06/24 14:07:38;;;;;;;3.07;2.87;;;28.60;22.60;;;;;;10430785;28;20229;-68
2023/06/24 14:12:42;;;;;;;3.30;3.00;;;28.70;23.00;;;;;;10436501;28;20226;-67
2023/06/24 14:17:46;;;;;;;3.50;3.30;;;28.70;23.00;;;;;;10431660;28;20221;-67
2023/06/24 14:22:50;;;;;;;3.10;2.90;;;28.70;22.60;;;;;;10421662;28;20232;-67
2023/06/24 14:27:53;;;;;;;3.40;3.10;;;28.80;22.50;;;;;;10426793;28;20225;-67
2023/06/24 14:32:58;;;;;;;3.23;3.03;;;28.90;22.50;;;;;;10433629;28;20237;-67
2023/06/24 14:38:01;;;;;;;3.17;2.97;;;28.90;22.20;;;;;;10424937;28;20236;-68
2023/06/24 14:43:04;;;;;;;3.10;2.90;;;29.00;22.40;;;;;;10426842;28;20782;-68
2023/06/24 14:48:08;;;;;;;3.00;2.70;;;29.10;22.50;;;;;;10426524;28;20706;-68
2023/06/24 14:53:11;;;;;;;3.10;2.90;;;29.10;21.50;;;;;;10433547;28;20233;-68
2023/06/24 14:58:15;;;;;;;3.10;2.90;;;29.10;21.90;;;;;;10422281;28;20320;-67
2023/06/24 15:03:23;;;;;;;3.30;3.10;;;29.10;22.20;;;;;;10434895;28;20349;-68
2023/06/24 15:08:26;;;;;;;3.47;3.17;;;29.10;22.10;;;;;;10432269;28;20221;-68
2023/06/24 15:13:29;;;;;;;3.23;3.03;;;29.10;21.90;;;;;;10423627;28;20669;-68
2023/06/24 15:18:34;;;;;;;3.20;3.00;;;29.00;21.90;;;;;;10427324;28;20672;-68
2023/06/24 15:23:37;;;;;;;3.10;2.90;;;28.90;21.30;;;;;;10429785;28;20220;-68
2023/06/24 15:28:40;;;;;;;3.10;2.87;;;28.80;21.50;;;;;;10427744;28;20307;-68
2023/06/24 15:33:45;;;;;;;3.33;3.13;;;28.80;21.70;;;;;;10431863;28;20225;-68
2023/06/24 15:38:48;;;;;;;3.00;2.80;;;28.70;21.20;;;;;;10428338;28;20229;-68
2023/06/24 15:43:51;;;;;;;3.40;3.20;;;28.80;21.90;;;;;;10430925;28;20231;-68
2023/06/24 15:48:56;;;;;;;3.43;3.13;;;28.90;21.60;;;;;;10442374;28;20253;-68
2023/06/24 15:53:59;;;;;;;3.30;3.10;;;28.90;20.60;;;;;;10439551;28;20588;-68
2023/06/24 15:59:02;;;;;;;3.13;2.83;;;29.00;21.00;;;;;;10427395;28;20221;-68
2023/06/24 16:04:07;;;;;;;3.40;3.20;;;28.90;21.00;;;;;;10439526;28;20235;-68
2023/06/24 16:09:11;;;;;;;3.00;2.80;;;29.00;20.60;;;;;;10435802;28;20299;-68
2023/06/24 16:14:14;;;;;;;3.20;3.00;;;29.00;20.60;;;;;;10424898;28;20317;-68
2023/06/24 16:19:18;;;;;;;3.03;2.83;;;29.00;20.60;;;;;;10422732;28;20730;-68
2023/06/24 16:24:22;;;;;;;3.00;2.80;;;29.00;20.60;;;;;;10424587;28;20231;-70
2023/06/24 16:29:25;;;;;;;2.90;2.70;;;29.00;20.60;;;;;;10426030;28;20237;-68
2023/06/24 16:34:30;;;;;;;3.23;3.03;;;29.00;20.30;;;;;;10432106;28;21153;-68
2023/06/24 16:39:33;;;;;;;3.10;2.90;;;29.00;19.70;;;;;;10427604;28;20230;-68
2023/06/24 16:44:37;;;;;;;3.10;2.90;;;29.00;20.60;;;;;;10432574;28;20310;-68
2023/06/24 16:49:42;;;;;;;3.70;2.83;;;29.00;20.60;;;;;;10427788;28;20241;-68
2023/06/24 16:54:45;;;;;;;3.20;3.00;;;28.90;20.50;;;;;;10432319;28;20225;-68
2023/06/24 16:59:48;;;;;;;3.43;3.23;;;28.90;20.50;;;;;;10428638;28;20225;-68
2023/06/24 17:04:53;;;;;;;3.20;3.00;;;28.90;20.50;;;;;;10428455;28;20235;-68
2023/06/24 17:09:56;;;;;;;3.00;2.80;;;29.00;20.60;;;;;;10432731;28;20752;-68
2023/06/24 17:14:59;;;;;;;3.20;3.00;;;29.10;20.60;;;;;;10428247;28;20740;-68
2023/06/24 17:20:05;;;;;;;3.60;3.30;;;29.10;20.70;;;;;;10428328;28;20233;-69
2023/06/24 17:25:09;;;;;;;3.33;3.13;;;29.10;20.50;;;;;;10426002;28;20783;-68
2023/06/24 17:30:12;;;;;;;3.10;2.90;;;29.00;20.60;;;;;;10432913;28;20237;-68
2023/06/24 17:35:17;;;;;;;3.20;3.00;;;29.00;21.20;;;;;;10432313;28;20331;-68
2023/06/24 17:40:20;;;;;;;3.50;3.20;;;28.90;20.60;;;;;;10432952;28;20226;-68
2023/06/24 17:45:23;;;;;;;3.43;3.13;;;28.80;20.90;;;;;;10430881;28;20783;-68
2023/06/24 17:50:32;;;;;;;3.20;3.00;;;28.80;21.30;;;;;;10434906;28;20307;-68
2023/06/24 17:55:36;;;;;;;3.43;3.23;;;28.70;21.90;;;;;;10428170;28;20220;-68
2023/06/24 18:00:40;;;;;;;3.50;3.27;;;28.70;21.90;;;;;;10428288;28;20226;-68
2023/06/24 18:05:45;;;;;;;3.90;3.60;;;28.60;22.00;;;;;;10431903;28;20236;-68
2023/06/24 18:10:49;;;;;;;3.40;3.20;;;28.50;21.90;;;;;;10421228;28;21011;-68
2023/06/24 18:15:52;;;;;;;3.30;3.10;;;28.40;22.20;;;;;;10437716;28;20325;-68
2023/06/24 18:20:56;;;;;;;3.30;3.10;;;28.20;22.30;;;;;;10429215;28;20236;-68
2023/06/24 18:25:59;;;;;;;3.30;3.10;;;28.10;22.40;;;;;;10427101;28;20227;-68
2023/06/24 18:31:03;;;;;;;3.60;3.30;;;28.00;23.10;;;;;;10431332;28;21167;-68
2023/06/24 18:36:07;;;;;;;3.50;3.20;;;27.90;22.70;;;;;;10435388;28;20240;-68
2023/06/24 18:41:10;;;;;;;3.70;3.40;;;27.80;23.00;;;;;;10428175;28;20698;-68
2023/06/24 18:46:14;;;;;;;3.43;3.13;;;27.70;23.00;;;;;;10433948;28;20374;-68
2023/06/24 18:51:21;;;;;;;4.00;3.60;;;27.70;23.10;;;;;;10426534;28;20813;-68
2023/06/24 18:56:25;;;;;;;3.60;3.40;;;27.50;23.40;;;;;;10423752;28;20237;-68
2023/06/24 19:01:28;;;;;;;5.00;4.60;;;27.40;23.40;;;;;;10427509;28;20226;-68
2023/06/24 19:06:32;;;;;;;4.33;4.03;;;27.30;23.40;;;;;;10435542;28;20233;-68
2023/06/24 19:11:36;;;;;;;3.90;3.60;;;27.20;24.00;;;;;;10429475;28;20221;-68
2023/06/24 19:16:40;;;;;;;4.00;3.70;;;27.10;23.70;;;;;;10426236;28;20721;-68
2023/06/24 19:21:44;;;;;;;3.67;3.20;;;27.00;23.90;;;;;;10433331;28;20255;-68
2023/06/24 19:26:47;;;;;;;3.73;3.43;;;26.90;23.80;;;;;;10441200;28;20229;-68
2023/06/24 19:31:50;;;;;;;3.73;3.43;;;26.70;23.90;;;;;;10437613;28;20222;-68
2023/06/24 19:36:55;;;;;;;3.77;3.50;;;26.60;24.10;;;;;;10428844;28;20233;-68
2023/06/24 19:41:59;;;;;;;3.93;3.63;;;26.50;24.40;;;;;;10435772;28;20235;-68
2023/06/24 19:47:02;;;;;;;3.80;3.50;;;26.40;24.40;;;;;;10435706;28;20229;-69
2023/06/24 19:52:07;;;;;;;3.90;3.70;;;26.20;24.40;;;;;;10437698;28;20790;-68
2023/06/24 19:57:11;;;;;;;3.90;3.60;;;26.10;24.60;;;;;;10432537;28;20229;-68
2023/06/24 20:02:14;;;;;;;3.83;3.53;;;26.00;24.70;;;;;;10435815;28;20717;-68
2023/06/24 20:07:19;;;;;;;4.07;3.67;;;25.80;24.60;;;;;;10433094;28;20275;-68
2023/06/24 20:12:22;;;;;;;4.57;4.17;;;25.60;24.80;;;;;;10434840;28;20236;-68
2023/06/24 20:17:25;;;;;;;3.90;3.60;;;25.30;24.80;;;;;;10428267;28;20233;-68
2023/06/24 20:22:29;;;;;;;3.87;3.57;;;24.90;25.20;;;;;;10438290;28;20884;-68
2023/06/24 20:27:33;;;;;;;4.30;3.97;;;24.70;25.70;;;;;;10433041;28;20727;-68
2023/06/24 20:32:37;;;;;;;4.37;4.00;;;24.50;25.60;;;;;;10435943;28;20235;-68
2023/06/24 20:37:42;;;;;;;5.03;4.23;;;24.20;25.80;;;;;;10437634;28;20222;-68
2023/06/24 20:42:45;;;;;;;6.37;4.90;;;24.10;26.30;;;;;;10426413;28;20236;-68
2023/06/24 20:47:48;;;;;;;5.83;5.40;;;23.90;26.80;;;;;;10424146;28;20230;-68
2023/06/24 20:52:53;;;;;;;5.37;4.97;;;23.60;26.60;;;;;;10428138;28;20702;-68
2023/06/24 20:57:56;;;;;;;4.70;4.23;;;23.40;27.40;;;;;;10427051;28;20238;-69
2023/06/24 21:03:00;;;;;;;5.57;5.07;;;23.20;27.20;;;;;;10428808;28;20229;-68
2023/06/24 21:08:04;;;;;;;5.83;5.27;;;23.00;27.30;;;;;;10422935;28;20355;-68
2023/06/24 21:13:08;;;;;;;6.10;5.60;;;22.80;27.40;;;;;;10431279;28;20828;-69
2023/06/24 21:18:11;;;;;;;6.17;5.60;;;22.70;27.40;;;;;;10430161;28;20309;-68
2023/06/24 21:23:15;;;;;;;5.63;5.13;;;22.50;27.90;;;;;;10428477;28;20249;-68
2023/06/24 21:28:19;;;;;;;4.97;4.57;;;22.40;28.30;;;;;;10435347;28;20641;-68
2023/06/24 21:33:22;;;;;;;5.60;5.20;;;22.40;28.20;;;;;;10428626;28;20312;-68
2023/06/24 21:38:26;;;;;;;5.10;4.70;;;22.40;28.40;;;;;;10430402;28;20229;-69
2023/06/24 21:43:30;;;;;;;5.23;4.83;;;22.40;28.80;;;;;;10426081;28;20248;-68
2023/06/24 21:48:33;;;;;;;6.17;5.67;;;22.50;28.40;;;;;;10429329;28;20500;-68
2023/06/24 21:53:37;;;;;;;4.77;4.37;;;22.50;28.30;;;;;;10427752;28;20228;-68
2023/06/24 21:58:41;;;;;;;4.90;4.50;;;22.40;28.60;;;;;;10431700;28;20229;-68
2023/06/24 22:03:44;;;;;;;5.07;4.53;;;22.30;28.50;;;;;;10434536;28;20234;-69
2023/06/24 22:08:48;;;;;;;4.57;4.17;;;22.20;28.60;;;;;;10425692;28;20347;-69
2023/06/24 22:13:51;;;;;;;5.40;5.00;;;22.20;28.90;;;;;;10429929;28;20311;-68
2023/06/24 22:18:55;;;;;;;5.23;4.73;;;22.10;28.70;;;;;;10426081;28;20749;-69
2023/06/24 22:23:59;;;;;;;5.00;4.00;;;22.10;28.70;;;;;;10436553;28;20225;-69
2023/06/24 22:29:02;;;;;;;4.63;4.20;;;21.90;28.90;;;;;;10423012;28;20228;-69
2023/06/24 22:34:05;;;;;;;4.37;4.07;;;21.80;28.80;;;;;;10429037;28;20302;-68
2023/06/24 22:39:10;;;;;;;4.53;4.23;;;21.80;29.00;;;;;;10428521;28;20225;-69
2023/06/24 22:44:13;;;;;;;4.83;4.50;;;21.70;29.30;;;;;;10424528;28;20305;-68
2023/06/24 22:49:17;;;;;;;4.27;3.97;;;21.60;29.10;;;;;;10433775;28;20727;-68
2023/06/24 22:54:21;;;;;;;4.60;4.30;;;21.40;29.10;;;;;;10433143;28;20701;-68
2023/06/24 22:59:24;;;;;;;4.57;4.17;;;21.20;29.60;;;;;;10434262;28;20240;-68
2023/06/24 23:04:28;;;;;;;5.63;4.50;;;21.10;29.50;;;;;;10437733;28;20233;-69
2023/06/24 23:09:33;;;;;;;5.03;4.63;;;21.00;29.60;;;;;;10436110;28;20700;-68
2023/06/24 23:14:36;;;;;;;6.70;5.07;;;20.90;30.00;;;;;;10430128;28;20732;-68
2023/06/24 23:19:40;;;;;;;6.43;5.10;;;20.90;29.80;;;;;;10438075;28;20756;-69
2023/06/24 23:24:52;;;;;;;6.10;5.03;;;20.80;29.90;;;;;;10436915;28;20228;-69
2023/06/24 23:29:56;;;;;;;5.30;4.17;;;20.70;30.50;;;;;;10432584;28;20316;-68
2023/06/24 23:35:00;;;;;;;5.77;4.50;;;20.80;30.20;;;;;;10434818;28;20224;-68
2023/06/24 23:40:07;;;;;;;5.10;4.70;;;20.80;30.10;;;;;;10431305;28;20231;-69
2023/06/24 23:45:12;;;;;;;5.90;5.40;;;20.80;30.80;;;;;;10436826;28;20234;-69
2023/06/24 23:50:15;;;;;;;5.47;5.03;;;20.90;30.40;;;;;;10434148;28;20244;-68
2023/06/24 23:55:20;;;;;;;4.97;4.57;;;20.80;30.10;;;;;;10434843;28;20706;-68
